Time;durP1;ratioP1;P1;durP2;ratioP2;P2;SDS_P1;SDS_P2;PMS_P1;PMS_P2;Temp;Humidity;BMP_temperature;BMP_pressure;BME280_temperature;BME280_humidity;BME280_pressure;Samples;Min_cycle;Max_cycle;Signal;HPM_P1;HPM_P2
2022/01/03 00:00:12;;;;;;;132.33;56.93;;;;;;;4.79;86.88;95245.53;5060812;28;20187;-78
2022/01/03 00:02:39;;;;;;;119.50;52.87;;;;;;;4.89;86.64;95269.63;5061773;28;20167;-78
2022/01/03 00:05:05;;;;;;;122.17;55.70;;;;;;;4.87;86.19;95263.78;5062883;28;20213;-78
2022/01/03 00:07:34;;;;;;;107.77;48.53;;;;;;;4.82;86.34;95268.69;5063350;28;20572;-78
2022/01/03 00:10:00;;;;;;;115.20;49.83;;;;;;;4.67;87.00;95239.00;5062435;28;20167;-78
2022/01/03 00:12:27;;;;;;;121.53;52.30;;;;;;;4.81;86.48;95261.00;5059417;28;20175;-78
2022/01/03 00:14:58;;;;;;;152.27;65.27;;;;;;;4.70;86.60;95238.69;5066507;28;20185;-78
2022/01/03 00:17:23;;;;;;;113.07;48.37;;;;;;;4.64;86.88;95228.13;5063130;28;20185;-78
2022/01/03 00:19:49;;;;;;;100.93;47.13;;;;;;;4.71;86.50;95237.72;5060969;28;20183;-78
2022/01/03 00:22:23;;;;;;;118.47;48.03;;;;;;;4.67;86.45;95233.81;5056748;28;20183;-78
2022/01/03 00:25:03;;;;;;;113.23;48.53;;;;;;;4.63;87.10;95222.09;5057558;28;20652;-78
2022/01/03 00:27:35;;;;;;;118.10;52.90;;;;;;;4.59;87.25;95231.19;5056601;28;20276;-78
2022/01/03 00:30:02;;;;;;;114.80;48.20;;;;;;;4.59;86.78;95231.19;5066911;28;20196;-78
2022/01/03 00:32:31;;;;;;;107.30;45.97;;;;;;;4.57;86.94;95224.56;5062927;28;20170;-78
2022/01/03 00:34:57;;;;;;;75.77;37.03;;;;;;;4.27;86.91;95200.78;5056461;28;20269;-78
2022/01/03 00:37:26;;;;;;;104.57;47.33;;;;;;;4.37;87.26;95211.84;5065077;28;20190;-77
2022/01/03 00:39:54;;;;;;;76.23;38.27;;;;;;;4.26;87.61;95200.94;5060761;28;20179;-78
2022/01/03 00:42:21;;;;;;;120.47;52.03;;;;;;;4.40;87.70;95242.00;5052832;28;20182;-78
2022/01/03 00:44:48;;;;;;;124.90;52.50;;;;;;;4.26;87.26;95219.19;5062436;28;20178;-78
2022/01/03 00:47:15;;;;;;;119.53;52.73;;;;;;;4.24;87.67;95216.72;5066566;28;20200;-78
2022/01/03 00:49:41;;;;;;;121.57;48.77;;;;;;;4.32;87.67;95258.44;5062419;28;20228;-78
2022/01/03 00:52:06;;;;;;;124.37;50.47;;;;;;;4.08;88.49;95227.97;5064430;28;20178;-78
2022/01/03 00:54:33;;;;;;;108.80;49.73;;;;;;;4.21;89.45;95237.09;5060324;28;20584;-78
2022/01/03 00:57:03;;;;;;;103.70;45.00;;;;;;;4.12;89.64;95207.63;5060318;28;20214;-78
2022/01/03 00:59:41;;;;;;;55.17;25.67;;;;;;;4.32;89.69;95234.19;5060830;28;20641;-78
2022/01/03 01:02:08;;;;;;;50.40;24.20;;;;;;;4.07;89.28;95191.66;5067034;28;20580;-78
2022/01/03 01:04:34;;;;;;;47.70;25.53;;;;;;;4.11;90.26;95196.38;5060032;28;20201;-78
2022/01/03 01:06:59;;;;;;;48.90;24.20;;;;;;;4.21;90.99;95205.84;5055958;28;20241;-78
2022/01/03 01:09:27;;;;;;;45.13;25.47;;;;;;;4.26;90.41;95190.50;5063177;28;20183;-78
2022/01/03 01:11:55;;;;;;;47.57;24.37;;;;;;;4.20;89.94;95176.38;5062548;28;20183;-78
2022/01/03 01:14:22;;;;;;;49.80;25.13;;;;;;;4.37;89.37;95198.00;5064178;28;20182;-78
2022/01/03 01:16:48;;;;;;;59.40;26.97;;;;;;;4.36;88.44;95189.38;5064675;28;20178;-78
2022/01/03 01:19:13;;;;;;;57.83;26.13;;;;;;;4.34;88.31;95185.28;5064000;28;20167;-78
2022/01/03 01:21:41;;;;;;;60.47;26.90;;;;;;;4.30;87.85;95171.00;5065336;28;20229;-78
2022/01/03 01:24:07;;;;;;;52.80;26.57;;;;;;;4.33;87.45;95196.69;5061881;28;20942;-78
2022/01/03 01:29:16;;;;;;;62.40;30.83;;;;;;;4.16;88.24;95162.03;5061728;28;20266;-78
2022/01/03 01:31:48;;;;;;;63.57;30.40;;;;;;;4.35;88.49;95189.53;5061543;28;20257;-78
2022/01/03 01:34:22;;;;;;;66.77;30.30;;;;;;;4.23;88.75;95165.63;5066180;28;20170;-78
2022/01/03 01:36:51;;;;;;;84.03;35.83;;;;;;;4.36;88.68;95173.75;5074787;28;20147;-78
2022/01/03 01:39:17;;;;;;;79.03;35.43;;;;;;;4.33;88.88;95187.09;5074980;28;20657;-78
2022/01/03 01:41:44;;;;;;;92.10;44.87;;;;;;;4.38;89.37;95187.44;5070257;28;20204;-78
2022/01/03 01:44:11;;;;;;;77.37;34.83;;;;;;;4.47;88.96;95185.63;5063396;28;20183;-78
2022/01/03 01:46:46;;;;;;;78.13;34.60;;;;;;;4.21;87.62;95133.72;5064813;28;20186;-78
2022/01/03 01:49:17;;;;;;;65.57;32.73;;;;;;;4.38;86.96;95163.16;5067669;28;20178;-78
2022/01/03 01:51:47;;;;;;;72.90;35.07;;;;;;;4.42;86.78;95180.06;5063271;28;20177;-77
2022/01/03 01:54:16;;;;;;;83.17;35.63;;;;;;;4.13;87.14;95134.53;5063108;28;20175;-77
2022/01/03 01:57:08;;;;;;;73.07;32.67;;;;;;;4.38;87.41;95178.78;5066678;28;20652;-77
2022/01/03 02:00:02;;;;;;;64.43;30.10;;;;;;;4.40;88.05;95182.06;5063135;28;20174;-78
2022/01/03 02:02:35;;;;;;;56.17;29.03;;;;;;;4.29;88.36;95157.16;5061321;28;20658;-78
2022/01/03 02:05:19;;;;;;;58.60;30.13;;;;;;;4.33;88.30;95171.44;5060310;28;20167;-77
2022/01/03 02:07:54;;;;;;;62.97;30.20;;;;;;;4.20;88.13;95163.34;5061223;28;20202;-78
2022/01/03 02:10:24;;;;;;;57.37;29.30;;;;;;;4.05;88.12;95139.75;5065644;28;20174;-78
2022/01/03 02:12:50;;;;;;;65.07;30.97;;;;;;;4.14;87.81;95143.97;5054354;28;20187;-78
2022/01/03 02:15:18;;;;;;;57.83;28.53;;;;;;;4.08;88.11;95130.78;5063127;28;20171;-78
2022/01/03 02:17:45;;;;;;;65.13;30.97;;;;;;;4.05;88.03;95118.91;5069967;28;20162;-78
2022/01/03 02:20:12;;;;;;;70.57;32.63;;;;;;;4.12;87.56;95132.09;5073366;28;20189;-78
2022/01/03 02:22:40;;;;;;;71.60;36.13;;;;;;;4.07;88.12;95119.53;5062973;28;20208;-78
2022/01/03 02:25:07;;;;;;;78.63;34.90;;;;;;;4.13;87.38;95126.72;5062699;28;20308;-78
2022/01/03 02:27:33;;;;;;;71.23;34.43;;;;;;;4.15;87.26;95114.31;5062435;28;20227;-78
2022/01/03 02:29:59;;;;;;;70.60;35.63;;;;;;;4.13;87.30;95111.09;5062528;28;20270;-78
2022/01/03 02:32:25;;;;;;;67.53;32.47;;;;;;;4.13;87.19;95121.50;5063077;28;20183;-78
2022/01/03 02:34:50;;;;;;;66.10;34.47;;;;;;;4.10;87.55;95114.00;5062548;28;20213;-78
2022/01/03 02:37:16;;;;;;;64.00;31.30;;;;;;;4.14;87.60;95112.72;5058345;28;21066;-78
2022/01/03 02:39:41;;;;;;;62.10;31.40;;;;;;;4.12;87.79;95104.25;5054094;28;20167;-78
2022/01/03 02:42:07;;;;;;;70.23;31.13;;;;;;;3.98;87.94;95097.09;5062533;28;20186;-78
2022/01/03 02:44:32;;;;;;;71.63;34.37;;;;;;;4.07;88.84;95116.13;5056294;28;20266;-78
2022/01/03 02:46:58;;;;;;;56.83;29.20;;;;;;;3.94;88.75;95085.38;5064940;28;20233;-78
2022/01/03 02:49:23;;;;;;;61.73;28.50;;;;;;;4.14;89.03;95120.53;5064481;28;20262;-78
2022/01/03 02:51:49;;;;;;;54.40;28.67;;;;;;;4.09;89.04;95128.00;5064491;28;20178;-78
2022/01/03 02:54:14;;;;;;;58.43;29.37;;;;;;;4.03;89.34;95115.66;5044692;28;20575;-78
2022/01/03 02:56:42;;;;;;;58.97;28.90;;;;;;;4.14;89.25;95124.94;5062279;28;20175;-77
2022/01/03 02:59:15;;;;;;;66.83;28.37;;;;;;;4.14;89.00;95120.53;5062258;28;20179;-77
2022/01/03 03:01:45;;;;;;;56.30;29.70;;;;;;;4.00;88.74;95099.53;5063713;28;20633;-78
2022/01/03 03:04:10;;;;;;;62.50;28.60;;;;;;;4.15;88.63;95109.09;5064135;28;20269;-78
2022/01/03 03:06:36;;;;;;;70.90;27.90;;;;;;;3.97;89.28;95084.25;5064326;28;20278;-78
2022/01/03 03:09:04;;;;;;;65.90;27.23;;;;;;;4.06;90.19;95094.50;5063905;28;20189;-77
2022/01/03 03:11:35;;;;;;;60.20;27.53;;;;;;;4.08;89.97;95095.13;5064452;28;20225;-78
2022/01/03 03:14:01;;;;;;;70.07;29.27;;;;;;;4.05;90.06;95098.06;5058407;28;20182;-78
2022/01/03 03:16:27;;;;;;;75.57;32.37;;;;;;;4.04;89.08;95080.81;5061776;28;20171;-78
2022/01/03 03:18:53;;;;;;;76.00;33.53;;;;;;;4.09;89.11;95086.34;5063251;28;20191;-78
2022/01/03 03:21:18;;;;;;;69.07;30.20;;;;;;;4.04;88.54;95077.41;5063901;28;20550;-78
2022/01/03 03:23:44;;;;;;;61.70;30.30;;;;;;;4.05;88.58;95081.63;5064140;28;20704;-78
2022/01/03 03:26:10;;;;;;;62.57;28.13;;;;;;;4.20;88.44;95100.00;5055573;28;20198;-78
2022/01/03 03:28:36;;;;;;;59.20;27.50;;;;;;;4.20;89.13;95110.41;5061222;28;20306;-78
2022/01/03 03:31:02;;;;;;;71.60;31.77;;;;;;;4.22;88.94;95114.50;5060051;28;20215;-78
2022/01/03 03:33:32;;;;;;;63.93;31.30;;;;;;;4.22;88.72;95090.22;5061449;28;20187;-78
2022/01/03 03:36:00;;;;;;;58.17;29.57;;;;;;;4.32;88.40;95102.09;5069793;28;20186;-78
2022/01/03 03:38:27;;;;;;;57.43;29.27;;;;;;;4.28;88.74;95100.78;5055400;28;20189;-78
2022/01/03 03:40:57;;;;;;;58.90;27.67;;;;;;;4.24;88.96;95094.28;5063335;28;20178;-77
2022/01/03 03:43:22;;;;;;;60.40;29.23;;;;;;;4.21;88.73;95086.81;5064154;28;20183;-78
2022/01/03 03:45:48;;;;;;;60.67;27.63;;;;;;;4.20;88.56;95095.59;5062812;28;20175;-78
2022/01/03 03:48:14;;;;;;;52.17;26.30;;;;;;;4.21;88.19;95091.22;5058954;28;20183;-78
2022/01/03 03:50:41;;;;;;;52.03;26.60;;;;;;;3.98;88.33;95060.63;5050560;28;20236;-77
2022/01/03 03:53:07;;;;;;;58.67;27.30;;;;;;;4.05;88.21;95076.44;5059433;28;20182;-77
2022/01/03 03:55:32;;;;;;;59.77;29.07;;;;;;;4.02;89.16;95074.97;5059141;28;20183;-77
2022/01/03 03:57:59;;;;;;;58.77;27.40;;;;;;;4.17;89.34;95091.53;5059290;28;20182;-78
2022/01/03 04:00:25;;;;;;;52.20;25.63;;;;;;;4.04;89.48;95069.59;5057638;28;20174;-77
2022/01/03 04:02:51;;;;;;;59.00;29.03;;;;;;;4.23;88.98;95097.06;5072023;28;20154;-78
2022/01/03 04:05:16;;;;;;;57.27;27.93;;;;;;;4.18;88.54;95077.53;5072418;28;20178;-77
2022/01/03 04:07:42;;;;;;;62.23;30.00;;;;;;;4.11;88.45;95060.13;5071857;28;20210;-77
2022/01/03 04:10:10;;;;;;;72.77;33.00;;;;;;;4.24;87.75;95088.28;5071601;28;20603;-77
2022/01/03 04:12:36;;;;;;;66.07;32.43;;;;;;;4.07;88.46;95067.44;5071552;28;20182;-77
2022/01/03 04:15:02;;;;;;;65.37;30.77;;;;;;;4.15;88.96;95090.88;5071615;28;20165;-77
2022/01/03 04:17:28;;;;;;;71.60;36.33;;;;;;;4.15;88.40;95090.88;5071427;28;20166;-77
2022/01/03 04:19:53;;;;;;;80.30;40.93;;;;;;;4.12;88.47;95099.03;5072212;28;20178;-77
2022/01/03 04:22:19;;;;;;;92.27;41.40;;;;;;;4.07;88.84;95096.09;5072083;28;20179;-78
2022/01/03 04:24:44;;;;;;;75.10;36.60;;;;;;;3.99;89.29;95079.66;5072008;28;20175;-77
2022/01/03 04:27:09;;;;;;;65.10;31.10;;;;;;;3.84;89.96;95074.31;5072124;28;20205;-78
2022/01/03 04:29:35;;;;;;;61.77;31.90;;;;;;;3.98;89.95;95097.09;5072317;28;20205;-77
2022/01/03 04:32:00;;;;;;;63.70;32.27;;;;;;;4.06;90.40;95084.09;5071972;28;20181;-77
2022/01/03 04:34:26;;;;;;;64.73;29.73;;;;;;;3.97;90.19;95064.22;5071728;28;20166;-77
2022/01/03 04:36:51;;;;;;;60.50;29.67;;;;;;;3.98;89.62;95065.84;5072378;28;20194;-77
2022/01/03 04:39:16;;;;;;;54.37;26.97;;;;;;;4.12;88.54;95086.00;5071830;28;20202;-78
2022/01/03 04:41:42;;;;;;;57.10;27.77;;;;;;;4.06;88.06;95078.88;5071535;28;20232;-77
2022/01/03 04:44:07;;;;;;;47.17;25.53;;;;;;;4.04;89.00;95085.22;5071731;28;20532;-77
2022/01/03 04:46:35;;;;;;;58.77;26.77;;;;;;;4.04;87.71;95080.00;5071657;28;20557;-77
2022/01/03 04:49:02;;;;;;;55.63;26.13;;;;;;;4.05;88.02;95110.28;5049091;28;20179;-77
2022/01/03 04:51:27;;;;;;;60.40;26.70;;;;;;;3.93;87.50;95088.97;5035870;28;20229;-77
2022/01/03 04:53:53;;;;;;;57.73;28.20;;;;;;;3.88;87.83;95095.66;5035818;28;20208;-77
2022/01/03 04:56:18;;;;;;;56.40;28.33;;;;;;;3.90;87.92;95097.09;5035578;28;20191;-77
2022/01/03 04:58:44;;;;;;;52.97;27.37;;;;;;;3.97;87.42;95111.09;5035492;28;20226;-77
2022/01/03 05:01:10;;;;;;;58.80;27.63;;;;;;;3.87;87.29;95102.66;5044355;28;20228;-77
2022/01/03 05:03:36;;;;;;;54.27;26.93;;;;;;;3.95;87.57;95120.88;5062258;28;20179;-78
2022/01/03 05:06:02;;;;;;;63.90;31.03;;;;;;;3.94;88.24;95121.84;5068708;28;20189;-77
2022/01/03 05:08:31;;;;;;;59.20;31.17;;;;;;;3.63;88.04;95068.81;5064036;28;20183;-77
2022/01/03 05:11:01;;;;;;;58.80;30.77;;;;;;;3.85;88.77;95112.41;5066137;28;20666;-77
2022/01/03 05:13:30;;;;;;;59.80;30.20;;;;;;;3.65;88.93;95111.91;5065674;28;20228;-77
2022/01/03 05:15:56;;;;;;;75.63;38.43;;;;;;;3.57;89.31;95103.28;5063774;28;20217;-77
2022/01/03 05:18:22;;;;;;;75.23;39.90;;;;;;;3.56;89.85;95115.47;5066351;28;20183;-77
2022/01/03 05:20:47;;;;;;;67.10;34.53;;;;;;;3.55;90.02;95110.44;5070082;28;20242;-78
2022/01/03 05:23:12;;;;;;;74.33;37.80;;;;;;;3.63;90.34;95113.06;5060791;28;20206;-77
2022/01/03 05:25:38;;;;;;;66.90;38.07;;;;;;;3.57;89.51;95090.25;5060988;28;20182;-78
2022/01/03 05:28:04;;;;;;;74.43;36.77;;;;;;;3.60;88.67;95097.75;5062769;28;20222;-77
2022/01/03 05:30:29;;;;;;;60.00;31.20;;;;;;;3.63;88.34;95098.22;5065390;28;20705;-78
2022/01/03 05:32:54;;;;;;;58.43;30.83;;;;;;;3.61;88.16;95083.78;5068223;28;20736;-77
2022/01/03 05:35:20;;;;;;;56.20;28.87;;;;;;;3.68;87.64;95095.16;5064574;28;20183;-77
2022/01/03 05:37:45;;;;;;;86.80;40.27;;;;;;;3.71;87.60;95082.66;5063467;28;20524;-77
2022/01/03 05:40:11;;;;;;;71.97;35.03;;;;;;;3.70;87.64;95086.22;5068262;28;20185;-78
2022/01/03 05:42:36;;;;;;;68.37;34.47;;;;;;;3.68;87.55;95095.97;5055861;28;20633;-78
2022/01/03 05:45:04;;;;;;;143.77;61.77;;;;;;;3.67;88.09;95096.94;5066917;28;20189;-78
2022/01/03 05:47:30;;;;;;;108.90;50.10;;;;;;;3.61;88.21;95086.38;5064141;28;20195;-78
2022/01/03 05:49:56;;;;;;;112.13;48.90;;;;;;;3.73;88.15;95101.50;5067045;28;20182;-78
2022/01/03 05:52:22;;;;;;;101.27;40.57;;;;;;;3.61;88.23;95075.97;5068062;28;20179;-78
2022/01/03 05:54:47;;;;;;;76.40;38.47;;;;;;;3.68;87.72;95088.16;5064430;28;20256;-78
2022/01/03 05:57:13;;;;;;;78.63;38.57;;;;;;;3.67;89.19;95085.72;5067982;28;20172;-78
2022/01/03 05:59:38;;;;;;;125.80;62.10;;;;;;;3.67;89.42;95083.13;5058616;28;20636;-78
2022/01/03 06:02:04;;;;;;;103.67;50.23;;;;;;;3.62;89.44;95078.41;5060935;28;20620;-78
2022/01/03 06:04:53;;;;;;;101.27;46.70;;;;;;;3.68;88.58;95090.75;5066539;28;20182;-78
2022/01/03 06:07:20;;;;;;;101.83;51.30;;;;;;;3.81;87.97;95103.28;5062794;28;20272;-78
2022/01/03 06:09:45;;;;;;;120.87;59.00;;;;;;;3.74;87.57;95087.50;5067105;28;20273;-78
2022/01/03 06:12:11;;;;;;;87.50;45.30;;;;;;;3.71;88.10;95085.25;5062296;28;20266;-78
2022/01/03 06:14:37;;;;;;;89.27;45.33;;;;;;;3.89;88.15;95115.50;5066386;28;20174;-78
2022/01/03 06:17:04;;;;;;;108.50;49.77;;;;;;;3.85;87.64;95095.97;5067018;28;20170;-78
2022/01/03 06:19:30;;;;;;;103.17;49.57;;;;;;;3.89;87.36;95098.09;5064920;28;20204;-78
2022/01/03 06:21:58;;;;;;;93.77;46.03;;;;;;;3.85;87.42;95107.19;5065124;28;20186;-78
2022/01/03 06:24:23;;;;;;;107.27;50.73;;;;;;;3.90;87.92;95104.91;5066519;28;20174;-78
2022/01/03 06:26:49;;;;;;;80.80;40.40;;;;;;;4.01;87.86;95122.81;5060998;28;20289;-78
2022/01/03 06:29:16;;;;;;;81.50;37.90;;;;;;;3.90;88.06;95099.69;5063853;28;20757;-78
2022/01/03 06:31:42;;;;;;;58.93;29.13;;;;;;;4.02;87.93;95119.22;5065487;28;20232;-78
2022/01/03 06:34:08;;;;;;;57.47;27.77;;;;;;;4.08;87.41;95122.97;5060592;28;20182;-78
2022/01/03 06:36:34;;;;;;;77.00;38.53;;;;;;;4.06;86.94;95112.72;5062238;28;20167;-78
2022/01/03 06:39:00;;;;;;;86.10;40.73;;;;;;;4.21;86.91;95109.44;5060776;28;20241;-78
2022/01/03 06:41:26;;;;;;;79.27;41.53;;;;;;;4.11;87.08;95080.97;5067267;28;20171;-78
2022/01/03 06:43:51;;;;;;;71.63;38.90;;;;;;;4.27;86.70;95093.13;5066920;28;20577;-78
2022/01/03 06:46:17;;;;;;;78.87;39.13;;;;;;;4.41;86.45;95102.91;5071471;28;20202;-77
2022/01/03 06:48:44;;;;;;;71.47;35.93;;;;;;;4.58;85.96;95116.69;5069040;28;20202;-78
2022/01/03 06:51:10;;;;;;;101.53;49.70;;;;;;;4.88;86.34;95102.88;5064897;28;20174;-78
2022/01/03 06:53:36;;;;;;;98.10;49.63;;;;;;;5.34;85.30;95095.16;5058986;28;20187;-78
2022/01/03 06:56:02;;;;;;;84.60;44.30;;;;;;;5.81;82.97;95081.91;5059805;28;20277;-78
2022/01/03 06:58:27;;;;;;;95.47;60.10;;;;;;;6.31;80.72;95102.25;5066985;28;20596;-78
2022/01/03 07:00:52;;;;;;;1173.97;586.73;;;;;;;6.78;78.74;95128.06;5059440;28;20182;-78
2022/01/03 07:03:18;;;;;;;1999.90;999.90;;;;;;;7.15;76.94;95124.53;5058247;28;20324;-78
2022/01/03 07:05:43;;;;;;;1815.40;817.30;;;;;;;7.75;76.29;95121.56;5061513;28;20189;-78
2022/01/03 07:08:09;;;;;;;823.70;305.83;;;;;;;8.50;73.80;95121.00;5056582;28;20268;-79
2022/01/03 07:10:34;;;;;;;293.57;266.90;;;;;;;9.06;70.33;95115.72;5065370;28;20296;-78
2022/01/03 07:13:00;;;;;;;64.03;40.67;;;;;;;9.43;68.87;95124.94;5059651;28;20266;-78
2022/01/03 07:20:54;;;;;;;111.13;62.13;;;;;;;11.22;63.08;95119.53;5063161;28;20229;-78
2022/01/03 07:23:21;;;;;;;96.83;55.37;;;;;;;11.77;61.58;95124.38;5062871;28;20253;-78
2022/01/03 07:25:47;;;;;;;69.97;42.63;;;;;;;11.87;60.42;95119.47;5057796;28;20600;-77
2022/01/03 07:28:14;;;;;;;68.60;40.60;;;;;;;11.42;62.10;95094.91;5062167;28;20313;-77
2022/01/03 07:30:40;;;;;;;66.27;38.33;;;;;;;11.06;62.75;95088.38;5059474;28;20198;-77
2022/01/03 07:33:05;;;;;;;62.90;37.73;;;;;;;11.47;62.06;95048.47;5060918;28;20183;-79
2022/01/03 07:35:32;;;;;;;61.00;38.20;;;;;;;12.39;59.57;95081.31;5058414;28;20179;-78
2022/01/03 07:37:59;;;;;;;59.27;36.07;;;;;;;13.84;56.31;95109.63;5067424;28;20703;-78
2022/01/03 07:40:25;;;;;;;59.60;35.23;;;;;;;15.28;53.19;95095.06;5062301;28;20177;-78
2022/01/03 07:42:51;;;;;;;61.73;36.17;;;;;;;17.04;48.88;95105.66;5065799;28;20185;-78
2022/01/03 07:45:19;;;;;;;56.87;36.27;;;;;;;18.09;46.08;95081.38;5058617;28;20179;-78
2022/01/03 07:47:45;;;;;;;49.28;31.30;;;;;;;18.91;44.10;95107.69;5056647;28;20293;-78
2022/01/03 07:50:11;;;;;;;51.65;31.73;;;;;;;19.27;43.32;95098.06;5058297;28;20270;-78
2022/01/03 07:52:37;;;;;;;46.53;30.75;;;;;;;19.35;42.75;95062.06;5060628;28;20206;-78
2022/01/03 07:55:05;;;;;;;47.92;29.60;;;;;;;19.11;42.46;95097.13;5063410;28;20704;-79
2022/01/03 07:57:30;;;;;;;39.08;26.40;;;;;;;17.81;44.68;95079.78;5057615;28;20198;-80
2022/01/03 07:59:56;;;;;;;37.95;25.33;;;;;;;16.81;46.97;95086.16;5058516;28;20229;-79
2022/01/03 08:02:24;;;;;;;40.55;25.45;;;;;;;16.63;48.43;95073.13;5059004;28;20617;-79
2022/01/03 08:04:49;;;;;;;27.00;17.60;;;;;;;17.75;45.85;95053.31;5059008;28;20186;-77
2022/01/03 08:07:16;;;;;;;34.63;22.48;;;;;;;19.57;42.72;95076.84;5059815;28;20194;-81
2022/01/03 08:09:42;;;;;;;26.33;17.35;;;;;;;21.12;40.04;95091.75;5062413;28;20174;-78
2022/01/03 08:12:08;;;;;;;28.58;18.48;;;;;;;22.25;37.51;95098.34;5062006;28;20550;-78
2022/01/03 08:14:34;;;;;;;20.45;14.57;;;;;;;22.58;34.98;95101.06;5054196;28;20171;-77
2022/01/03 08:16:59;;;;;;;20.50;14.80;;;;;;;22.35;35.43;95095.59;5068548;28;20173;-79
2022/01/03 08:19:25;;;;;;;28.23;18.40;;;;;;;22.01;36.24;95100.91;5071794;28;20643;-78
2022/01/03 08:21:51;;;;;;;23.13;15.60;;;;;;;21.37;36.74;95104.31;5064912;28;20183;-79
2022/01/03 08:24:17;;;;;;;18.10;13.45;;;;;;;20.96;37.61;95087.50;5067661;28;20181;-79
2022/01/03 08:26:45;;;;;;;21.35;13.82;;;;;;;20.58;38.77;95086.19;5071776;28;20206;-79
2022/01/03 08:29:13;;;;;;;21.25;14.88;;;;;;;20.43;38.98;95092.31;5065312;28;20618;-78
2022/01/03 08:31:38;;;;;;;20.45;13.32;;;;;;;20.20;38.31;95092.81;5058702;28;20185;-78
2022/01/03 08:34:05;;;;;;;19.95;13.55;;;;;;;19.46;40.01;95079.72;5057200;28;20167;-79
2022/01/03 08:36:35;;;;;;;20.00;12.20;;;;;;;18.71;41.59;95079.00;5064943;28;20220;-79
2022/01/03 08:39:01;;;;;;;18.58;12.68;;;;;;;18.53;42.35;95084.69;5067241;28;20190;-79
2022/01/03 08:41:26;;;;;;;18.52;12.45;;;;;;;17.69;43.59;95055.13;5062694;28;20325;-79
2022/01/03 08:43:53;;;;;;;12.70;9.23;;;;;;;17.31;44.16;95070.09;5071815;28;20672;-79
2022/01/03 08:46:19;;;;;;;15.47;9.87;;;;;;;16.51;46.59;95064.41;5062510;28;20236;-79
2022/01/03 08:48:47;;;;;;;33.97;10.77;;;;;;;15.83;48.13;95038.81;5060532;28;20210;-78
2022/01/03 08:51:13;;;;;;;15.00;9.97;;;;;;;15.23;48.84;95026.00;5054509;28;20175;-79
2022/01/03 08:53:38;;;;;;;17.40;10.53;;;;;;;14.87;51.70;95045.69;5054501;28;20175;-78
2022/01/03 08:56:04;;;;;;;16.83;9.77;;;;;;;14.65;52.91;95045.47;5060179;28;20182;-79
2022/01/03 08:58:31;;;;;;;16.27;9.80;;;;;;;14.66;52.94;95039.13;5067005;28;20564;-78
2022/01/03 09:00:57;;;;;;;15.80;9.73;;;;;;;14.32;52.37;95006.28;5062471;28;20182;-79
2022/01/03 09:03:22;;;;;;;15.23;10.57;;;;;;;14.29;53.66;95021.81;5058350;28;20179;-79
2022/01/03 09:05:49;;;;;;;18.33;10.27;;;;;;;14.31;53.93;95027.69;5061983;28;20240;-78
2022/01/03 09:08:21;;;;;;;18.20;11.60;;;;;;;14.42;54.66;95024.28;5063251;28;20674;-79
2022/01/03 09:10:47;;;;;;;19.10;11.03;;;;;;;14.56;53.34;95024.84;5058272;28;20195;-79
2022/01/03 09:13:12;;;;;;;19.03;11.23;;;;;;;14.57;53.49;94998.13;5056914;28;20220;-79
2022/01/03 09:15:38;;;;;;;20.60;11.23;;;;;;;14.38;54.76;94975.41;5056564;28;20170;-80
2022/01/03 09:18:04;;;;;;;19.37;11.13;;;;;;;14.60;54.04;95016.22;5059961;28;20178;-80
2022/01/03 09:20:29;;;;;;;22.07;11.53;;;;;;;14.56;53.87;95014.25;5061675;28;20237;-79
2022/01/03 09:23:03;;;;;;;19.23;10.33;;;;;;;14.57;54.30;95003.41;5057949;28;20163;-78
2022/01/03 09:30:45;;;;;;;23.43;10.53;;;;;;;15.05;52.59;94992.50;5062443;28;20174;-79
2022/01/03 09:33:10;;;;;;;17.90;9.83;;;;;;;14.83;52.46;94982.75;5056524;28;20572;-79
2022/01/03 09:35:38;;;;;;;24.97;10.33;;;;;;;14.36;52.66;94993.38;5062575;28;20191;-78
2022/01/03 09:38:03;;;;;;;19.13;11.30;;;;;;;14.01;53.73;94966.09;5063732;28;20195;-79
2022/01/03 09:40:32;;;;;;;23.20;12.67;;;;;;;13.84;54.00;94979.97;5064598;28;20170;-79
2022/01/03 09:43:00;;;;;;;24.87;13.23;;;;;;;13.81;55.70;94969.84;5064132;28;20171;-78
2022/01/03 09:45:28;;;;;;;28.37;14.87;;;;;;;13.56;55.65;94953.34;5059897;28;20236;-78
2022/01/03 09:47:55;;;;;;;19.77;12.53;;;;;;;13.34;55.88;94970.75;5066815;28;20226;-77
2022/01/03 09:50:23;;;;;;;26.80;14.53;;;;;;;13.27;57.04;94972.69;5064274;28;20167;-79
2022/01/03 09:52:50;;;;;;;25.43;14.30;;;;;;;13.06;58.52;94961.53;5066096;28;20190;-79
2022/01/03 09:55:18;;;;;;;24.80;14.60;;;;;;;13.14;57.94;94969.22;5064419;28;20265;-77
2022/01/03 09:57:45;;;;;;;28.30;14.73;;;;;;;13.17;57.51;94950.25;5064895;28;20171;-77
2022/01/03 10:00:25;;;;;;;28.43;14.60;;;;;;;13.11;57.92;94935.25;5058725;28;20624;-77
2022/01/03 10:02:53;;;;;;;25.73;15.83;;;;;;;12.99;57.58;94938.88;5049651;28;20786;-77
2022/01/03 10:05:20;;;;;;;28.37;16.27;;;;;;;12.82;58.58;94922.81;5049920;28;20183;-77
2022/01/03 10:07:45;;;;;;;25.37;14.90;;;;;;;13.08;59.44;94938.34;5049460;28;20207;-77
2022/01/03 10:10:12;;;;;;;23.63;14.90;;;;;;;13.09;58.11;94910.88;5055225;28;20186;-79
2022/01/03 10:12:38;;;;;;;29.10;17.37;;;;;;;13.27;57.99;94941.78;5059715;28;20201;-78
2022/01/03 10:15:08;;;;;;;26.67;15.83;;;;;;;13.15;59.28;94909.19;5062322;28;20202;-78
2022/01/03 10:17:36;;;;;;;29.17;17.87;;;;;;;13.25;58.01;94932.44;5054810;28;20175;-79
2022/01/03 10:20:04;;;;;;;29.67;16.27;;;;;;;13.23;59.08;94911.53;5056458;28;20171;-78
2022/01/03 10:22:31;;;;;;;27.73;16.97;;;;;;;13.15;57.52;94915.28;5056937;28;20166;-78
2022/01/03 10:25:02;;;;;;;31.43;17.23;;;;;;;13.03;58.76;94903.84;5056515;28;20179;-79
2022/01/03 10:27:53;;;;;;;29.13;16.57;;;;;;;13.01;58.59;94882.13;5053577;28;20222;-82
2022/01/03 10:30:38;;;;;;;35.70;18.77;;;;;;;13.14;57.68;94881.97;5055900;28;20179;-79
2022/01/03 10:33:06;;;;;;;33.23;17.73;;;;;;;13.42;59.14;94899.03;5055841;28;20266;-81
2022/01/03 10:35:37;;;;;;;33.40;16.83;;;;;;;13.52;58.07;94884.22;5056510;28;20249;-79
2022/01/03 10:38:04;;;;;;;20.37;13.13;;;;;;;13.61;56.85;94884.69;5056254;28;20212;-79
2022/01/03 10:40:31;;;;;;;22.60;13.03;;;;;;;13.54;56.97;94882.16;5053495;28;20173;-80
2022/01/03 10:42:58;;;;;;;20.80;12.70;;;;;;;13.48;57.17;94880.44;5060546;28;20185;-80
2022/01/03 10:45:32;;;;;;;24.17;10.90;;;;;;;13.34;57.41;94859.72;5054315;28;20177;-80
2022/01/03 10:47:59;;;;;;;21.37;11.93;;;;;;;13.29;58.10;94859.59;5054933;28;20201;-80
2022/01/03 10:50:28;;;;;;;17.77;10.93;;;;;;;13.34;57.82;94865.81;5054582;28;20197;-79
2022/01/03 10:52:55;;;;;;;24.57;12.20;;;;;;;13.31;58.46;94839.84;5056468;28;20714;-79
2022/01/03 10:55:25;;;;;;;22.87;10.97;;;;;;;13.45;58.45;94848.34;5055995;28;20174;-79
2022/01/03 10:58:02;;;;;;;16.43;10.30;;;;;;;13.41;58.44;94855.13;5055778;28;20626;-79
2022/01/03 11:00:40;;;;;;;18.80;10.80;;;;;;;13.32;58.71;94848.56;5054036;28;20179;-80
2022/01/03 11:03:24;;;;;;;15.37;9.50;;;;;;;13.25;58.08;94839.91;5060186;28;20220;-79
2022/01/03 11:05:55;;;;;;;16.13;10.47;;;;;;;13.13;58.23;94821.38;5060358;28;20216;-83
2022/01/03 11:11:09;;;;;;;24.30;13.10;;;;;;;13.00;58.83;94826.84;5059199;28;20213;-78
2022/01/03 11:13:41;;;;;;;24.87;12.87;;;;;;;12.95;59.34;94816.16;5059559;28;20178;-81
2022/01/03 11:16:08;;;;;;;21.33;13.07;;;;;;;12.99;59.38;94814.66;5052181;28;20649;-80
2022/01/03 11:18:37;;;;;;;28.67;13.80;;;;;;;12.43;59.85;94771.81;5049050;28;20228;-79
2022/01/03 11:21:15;;;;;;;28.17;13.20;;;;;;;12.52;60.72;94798.69;5054806;28;20237;-82
2022/01/03 11:23:45;;;;;;;20.80;12.73;;;;;;;12.70;60.86;94809.22;5062721;28;20911;-80
2022/01/03 11:26:13;;;;;;;24.93;12.87;;;;;;;12.53;60.80;94781.03;5049380;28;20247;-80
2022/01/03 11:28:43;;;;;;;22.57;13.80;;;;;;;12.35;60.55;94773.94;5057716;28;20226;-80
2022/01/03 11:31:13;;;;;;;22.97;13.63;;;;;;;12.31;61.90;94792.06;5062809;28;20170;-79
2022/01/03 11:33:42;;;;;;;25.23;13.90;;;;;;;12.38;62.22;94786.69;5058388;28;20174;-82
2022/01/03 11:36:08;;;;;;;27.33;13.20;;;;;;;12.56;60.94;94791.09;5058786;28;20718;-79
2022/01/03 11:38:43;;;;;;;23.17;13.30;;;;;;;12.41;61.05;94759.84;5057224;28;20210;-80